Portada
METAR-TAF:

METAR-TAF

Aeroports :

La Chaux-de-Fonds, Suïssa

latitud: 47-05-03N, longitud: 006-47-37E, altitud: 1027 m

Observació

L'informe es va fer fa 41 minuts, a les 14:50 UTC
Vent 2 kt amb direcció variable
Temperatura -2°C
Humitat 86%
Pressió 1023 hPa
Visibilitat 10 km o més
sense núvols per sota de 1500 mi sense presència de cumulonimbus.

METAR: LSGC 101450Z VRB02KT CAVOK M02/M04 Q1023

Hora: 16:31 (15:31 UTC)

Pronòstic

L'informe es va fer fa 1 hora i 6 minuts, a les 14:25 UTC
Pronòstic vàlid del 10 a les 15 UTC al 10 a les 24 UTC
Vent 3 kt amb direcció variable
Visibilitat 10 km o més
sense núvols per sota de 1500 mi sense presència de cumulonimbus.

TAF: LSGC 101425Z 1015/1024 VRB03KT CAVOK

Observacions i pronòstics meteorològics de més de 4000 aeroports (METAR i TAF).

Les estacions disponibles són els punts grocs i vermells al mapa.

Posi el ratolí al punt desitjat per veure el nom de l'estació.

Feu clic per veure les observacions i els pronòstics meteorològics.

Per canviar el mapa: feu clic els botons verds amb una creu de color negre per apropar; al botó verd amb un guió per allunyar la imatge; o en les fletxes verdes per a mapes adjacents.


METAR-TAF: